createdAt,value
2023-03-07T00:01:31.208Z,0
2023-03-07T00:04:56.368Z,0
2023-03-07T00:08:21.532Z,0
2023-03-07T00:11:46.694Z,0
2023-03-07T00:15:11.887Z,0
2023-03-07T00:18:37.012Z,0
2023-03-07T00:22:02.211Z,0
2023-03-07T00:25:27.404Z,0
2023-03-07T00:28:52.575Z,0
2023-03-07T00:32:17.785Z,0
2023-03-07T00:35:42.910Z,0
2023-03-07T00:39:08.065Z,0
2023-03-07T00:42:33.240Z,0
2023-03-07T00:45:58.440Z,0
2023-03-07T00:49:23.589Z,0
2023-03-07T00:52:48.725Z,0
2023-03-07T00:56:13.886Z,0
2023-03-07T00:59:39.032Z,0
2023-03-07T01:03:04.183Z,0
2023-03-07T01:06:29.372Z,0
2023-03-07T01:09:54.492Z,0
2023-03-07T01:13:19.690Z,0
2023-03-07T01:16:44.899Z,0
2023-03-07T01:20:10.047Z,0
2023-03-07T01:23:35.226Z,0
2023-03-07T01:27:00.374Z,0
2023-03-07T01:30:25.532Z,0
2023-03-07T01:33:50.694Z,0
2023-03-07T01:37:15.857Z,0
2023-03-07T01:40:41.052Z,0
2023-03-07T01:44:06.273Z,0
2023-03-07T01:47:31.345Z,0
2023-03-07T01:50:56.501Z,0
2023-03-07T01:54:21.664Z,0
2023-03-07T01:57:46.973Z,0
2023-03-07T02:01:12.098Z,0
2023-03-07T02:04:37.224Z,0
2023-03-07T02:08:02.348Z,0
2023-03-07T02:11:27.536Z,0
2023-03-07T02:14:52.762Z,0
2023-03-07T02:18:17.909Z,0
2023-03-07T02:21:43.122Z,0
2023-03-07T02:25:08.269Z,0
2023-03-07T02:28:33.486Z,0
2023-03-07T02:31:58.755Z,0
2023-03-07T02:35:23.923Z,0
2023-03-07T02:38:49.066Z,0
2023-03-07T02:42:14.266Z,0
2023-03-07T02:45:39.444Z,0
2023-03-07T02:49:04.677Z,0
2023-03-07T02:52:29.885Z,0
2023-03-07T02:55:56.021Z,0
2023-03-07T02:59:21.221Z,0
2023-03-07T03:02:46.420Z,0
2023-03-07T03:06:11.730Z,0
2023-03-07T03:09:36.813Z,0
2023-03-07T03:13:02.004Z,0
2023-03-07T03:16:27.295Z,0
2023-03-07T03:19:52.368Z,0
2023-03-07T03:23:17.601Z,0
2023-03-07T03:26:42.749Z,0
2023-03-07T03:30:07.983Z,0
2023-03-07T03:33:33.202Z,0
2023-03-07T03:36:58.404Z,0
2023-03-07T03:40:23.626Z,0
2023-03-07T03:43:48.784Z,0
2023-03-07T03:47:13.965Z,0
2023-03-07T03:50:39.157Z,0
2023-03-07T03:54:04.346Z,0
2023-03-07T03:57:29.676Z,0
2023-03-07T04:00:54.735Z,0
2023-03-07T04:04:19.943Z,0
2023-03-07T04:07:45.167Z,0
2023-03-07T04:11:10.348Z,0
2023-03-07T04:14:35.566Z,0
2023-03-07T04:18:00.771Z,0
2023-03-07T04:21:25.950Z,0
2023-03-07T04:24:51.135Z,0
2023-03-07T04:28:16.394Z,0
2023-03-07T04:31:41.611Z,0
2023-03-07T04:35:06.770Z,0
2023-03-07T04:38:32.061Z,0
2023-03-07T04:41:57.227Z,0
2023-03-07T04:45:22.415Z,0
2023-03-07T04:48:47.743Z,0
2023-03-07T04:52:12.820Z,0
2023-03-07T04:55:37.996Z,0
2023-03-07T04:59:03.209Z,0
2023-03-07T05:02:28.433Z,0
2023-03-07T05:05:53.665Z,0
2023-03-07T05:09:18.845Z,0
2023-03-07T05:12:44.080Z,0
2023-03-07T05:16:09.348Z,0
2023-03-07T05:19:34.498Z,0
2023-03-07T05:22:59.723Z,0
2023-03-07T05:26:24.884Z,0
2023-03-07T05:29:50.092Z,0
2023-03-07T05:33:15.346Z,0
2023-03-07T05:36:40.577Z,0
2023-03-07T05:40:05.827Z,0
2023-03-07T05:43:31.016Z,0
2023-03-07T05:46:56.225Z,0
2023-03-07T05:50:21.431Z,0
2023-03-07T05:53:46.639Z,0
2023-03-07T05:57:11.935Z,0
2023-03-07T06:00:37.091Z,0
2023-03-07T06:04:02.340Z,6
2023-03-07T06:07:27.497Z,6
2023-03-07T06:10:52.696Z,6
2023-03-07T06:14:17.965Z,6
2023-03-07T06:17:43.103Z,11
2023-03-07T06:21:08.313Z,17
2023-03-07T06:24:33.498Z,17
2023-03-07T06:27:58.669Z,17
2023-03-07T06:31:23.944Z,23
2023-03-07T06:34:49.124Z,23
2023-03-07T06:38:14.311Z,17
2023-03-07T06:41:39.503Z,17
2023-03-07T06:45:04.690Z,23
2023-03-07T06:48:29.895Z,28
2023-03-07T06:51:55.051Z,28
2023-03-07T06:55:20.252Z,28
2023-03-07T06:58:45.430Z,28
2023-03-07T07:02:10.691Z,28
2023-03-07T07:05:35.835Z,28
2023-03-07T07:09:01.000Z,34
2023-03-07T07:12:26.184Z,23
2023-03-07T07:15:51.387Z,23
2023-03-07T07:19:16.568Z,23
2023-03-07T07:22:41.824Z,23
2023-03-07T07:26:07.015Z,28
2023-03-07T07:29:32.213Z,34
2023-03-07T07:32:57.552Z,28
2023-03-07T07:36:22.951Z,28
2023-03-07T07:39:47.902Z,23
2023-03-07T07:43:13.061Z,28
2023-03-07T07:46:38.251Z,39
2023-03-07T07:50:03.516Z,23
2023-03-07T07:53:28.726Z,34
2023-03-07T07:56:53.944Z,34
2023-03-07T08:00:19.135Z,39
2023-03-07T08:03:44.406Z,39
2023-03-07T08:07:09.772Z,51
2023-03-07T08:10:35.239Z,62
2023-03-07T08:14:00.462Z,51
2023-03-07T08:17:25.720Z,45
2023-03-07T08:20:50.946Z,56
2023-03-07T08:24:16.178Z,62
2023-03-07T08:27:41.428Z,68
2023-03-07T08:31:06.754Z,90
2023-03-07T08:34:31.871Z,68
2023-03-07T08:37:57.155Z,84
2023-03-07T08:41:22.342Z,113
2023-03-07T08:44:47.610Z,62
2023-03-07T08:48:12.946Z,96
2023-03-07T08:51:38.027Z,118
2023-03-07T08:55:03.249Z,113
2023-03-07T08:58:28.484Z,101
2023-03-07T09:01:53.733Z,107
2023-03-07T09:05:18.961Z,90
2023-03-07T09:08:44.114Z,79
2023-03-07T09:12:09.320Z,96
2023-03-07T09:15:34.543Z,90
2023-03-07T09:18:59.756Z,135
2023-03-07T09:22:24.964Z,158
2023-03-07T09:25:50.179Z,90
2023-03-07T09:29:15.384Z,96
2023-03-07T09:32:40.697Z,118
2023-03-07T09:36:05.833Z,141
2023-03-07T09:39:31.092Z,152
2023-03-07T09:42:56.227Z,129
2023-03-07T09:46:21.417Z,101
2023-03-07T09:49:46.633Z,152
2023-03-07T09:53:11.856Z,113
2023-03-07T09:56:37.173Z,84
2023-03-07T10:00:02.243Z,113
2023-03-07T10:03:27.513Z,129
2023-03-07T10:06:52.669Z,101
2023-03-07T10:10:17.876Z,84
2023-03-07T10:13:43.149Z,96
2023-03-07T10:17:08.611Z,90
2023-03-07T10:20:33.532Z,79
2023-03-07T10:23:58.795Z,90
2023-03-07T10:27:23.992Z,113
2023-03-07T10:30:49.207Z,158
2023-03-07T10:34:25.831Z,101
2023-03-07T10:37:39.632Z,113
2023-03-07T10:41:06.526Z,101
2023-03-07T10:44:30.069Z,101
2023-03-07T10:47:55.281Z,113
2023-03-07T10:51:20.443Z,129
2023-03-07T10:54:45.742Z,129
2023-03-07T10:58:10.928Z,129
2023-03-07T11:01:36.191Z,129
2023-03-07T11:05:01.385Z,96
2023-03-07T11:08:26.528Z,73
2023-03-07T11:11:51.785Z,68
2023-03-07T11:15:16.999Z,90
2023-03-07T11:18:42.213Z,79
2023-03-07T11:22:07.435Z,56
2023-03-07T11:25:32.636Z,68
2023-03-07T11:28:57.846Z,56
2023-03-07T11:32:23.130Z,45
2023-03-07T11:35:48.331Z,68
2023-03-07T11:39:13.509Z,79
2023-03-07T11:42:38.839Z,73
2023-03-07T11:46:04.082Z,79
2023-03-07T11:49:29.266Z,68
2023-03-07T11:52:54.522Z,51
2023-03-07T11:56:19.787Z,51
2023-03-07T11:59:45.034Z,56
2023-03-07T12:03:10.302Z,39
2023-03-07T12:06:35.520Z,28
2023-03-07T12:10:00.768Z,56
2023-03-07T12:13:26.005Z,45
2023-03-07T12:16:51.198Z,51
2023-03-07T12:20:16.435Z,51
2023-03-07T12:23:41.664Z,45
2023-03-07T12:27:06.858Z,39
2023-03-07T12:30:32.091Z,45
2023-03-07T12:33:57.487Z,39
2023-03-07T12:37:22.739Z,45
2023-03-07T12:40:47.910Z,73
2023-03-07T12:44:13.127Z,56
2023-03-07T12:47:38.357Z,51
2023-03-07T12:51:03.529Z,51
2023-03-07T12:54:28.733Z,51
2023-03-07T12:57:53.929Z,51
2023-03-07T13:01:19.186Z,51
2023-03-07T13:04:44.390Z,51
2023-03-07T13:08:09.515Z,51
2023-03-07T13:11:34.820Z,51
2023-03-07T13:14:59.950Z,45
2023-03-07T13:18:25.158Z,45
2023-03-07T13:21:50.399Z,45
2023-03-07T13:25:15.562Z,45
2023-03-07T13:28:40.792Z,51
2023-03-07T13:32:06.032Z,45
2023-03-07T13:35:31.380Z,45
2023-03-07T13:38:56.484Z,39
2023-03-07T13:42:21.656Z,34
2023-03-07T13:45:46.909Z,34
2023-03-07T13:49:12.087Z,39
2023-03-07T13:52:37.301Z,34
2023-03-07T13:56:02.642Z,34
2023-03-07T13:59:27.911Z,34
2023-03-07T14:02:53.280Z,39
2023-03-07T14:06:18.545Z,45
2023-03-07T14:09:43.878Z,34
2023-03-07T14:13:09.185Z,45
2023-03-07T14:16:34.300Z,39
2023-03-07T14:19:59.486Z,45
2023-03-07T14:23:24.671Z,39
2023-03-07T14:26:49.900Z,28
2023-03-07T14:30:15.170Z,28
2023-03-07T15:06:14.135Z,0
2023-03-07T15:09:39.351Z,11
2023-03-07T15:13:04.579Z,11
2023-03-07T15:16:30.459Z,11
2023-03-07T15:19:55.663Z,11
2023-03-07T15:23:20.931Z,11
2023-03-07T15:26:46.152Z,6
2023-03-07T15:30:11.416Z,6
2023-03-07T15:33:36.680Z,11
2023-03-07T15:37:03.726Z,11
2023-03-07T15:40:27.186Z,6
2023-03-07T15:43:52.402Z,6
2023-03-07T15:47:17.676Z,6
2023-03-07T15:50:42.926Z,6
2023-03-07T15:54:08.160Z,6
2023-03-07T15:57:33.494Z,6
2023-03-07T16:00:58.658Z,6
2023-03-07T16:04:23.896Z,6
2023-03-07T16:07:49.143Z,0
2023-03-07T16:11:17.310Z,6
2023-03-07T16:14:42.187Z,6
2023-03-07T16:18:07.345Z,6
2023-03-07T16:21:32.557Z,6
2023-03-07T16:24:57.771Z,0
2023-03-07T16:28:22.984Z,0
2023-03-07T16:31:48.256Z,0
2023-03-07T16:35:13.399Z,0
2023-03-07T16:38:38.706Z,0
2023-03-07T16:42:03.965Z,0
2023-03-07T16:45:29.197Z,0
2023-03-07T16:48:54.443Z,0
2023-03-07T16:52:19.643Z,0
2023-03-07T16:55:44.844Z,0
2023-03-07T16:59:10.092Z,0
2023-03-07T17:02:35.353Z,0
2023-03-07T17:06:00.569Z,0
2023-03-07T17:09:25.752Z,0
2023-03-07T17:12:50.955Z,0
2023-03-07T17:16:16.189Z,0
2023-03-07T17:19:41.361Z,0
2023-03-07T17:23:06.607Z,0
2023-03-07T17:26:31.789Z,0
2023-03-07T17:29:57.004Z,0
2023-03-07T17:33:22.223Z,0
2023-03-07T17:36:47.428Z,0
2023-03-07T17:40:12.730Z,0
2023-03-07T17:43:37.814Z,0
2023-03-07T17:47:03.036Z,0
2023-03-07T17:50:28.282Z,0
2023-03-07T17:53:53.497Z,0
2023-03-07T17:57:18.785Z,0
2023-03-07T18:00:43.874Z,0
2023-03-07T18:04:09.098Z,0
2023-03-07T18:07:34.386Z,0
2023-03-07T18:10:59.669Z,0
2023-03-07T18:14:25.026Z,0
2023-03-07T18:17:50.383Z,0
2023-03-07T18:21:15.644Z,0
2023-03-07T18:24:40.981Z,0
2023-03-07T18:28:06.320Z,0
2023-03-07T18:31:31.817Z,0
2023-03-07T18:34:57.071Z,0
2023-03-07T18:38:22.397Z,0
2023-03-07T18:41:47.781Z,0
2023-03-07T18:45:13.125Z,0
2023-03-07T18:48:38.522Z,0
2023-03-07T18:52:03.878Z,0
2023-03-07T18:55:29.151Z,0
2023-03-07T18:58:54.519Z,0
2023-03-07T19:02:19.962Z,0
2023-03-07T19:05:45.252Z,0
2023-03-07T19:09:10.606Z,0
2023-03-07T19:12:35.953Z,0
2023-03-07T19:16:01.417Z,0
2023-03-07T19:19:26.579Z,0
2023-03-07T19:22:52.024Z,0
2023-03-07T19:26:17.396Z,0
2023-03-07T19:29:42.867Z,0
2023-03-07T19:33:08.227Z,0
2023-03-07T19:36:33.540Z,0
2023-03-07T19:39:58.938Z,0
2023-03-07T19:43:24.310Z,0
2023-03-07T19:46:49.643Z,0
2023-03-07T19:50:14.955Z,0
2023-03-07T19:53:40.314Z,0
2023-03-07T19:57:05.664Z,0
2023-03-07T20:00:31.006Z,0
2023-03-07T20:03:56.360Z,0
2023-03-07T20:07:21.762Z,0
2023-03-07T20:10:47.134Z,0
2023-03-07T20:14:12.527Z,0
2023-03-07T20:17:37.797Z,0
2023-03-07T20:21:03.145Z,0
2023-03-07T20:24:28.539Z,0
2023-03-07T20:27:53.839Z,0
2023-03-07T20:31:19.211Z,0
2023-03-07T20:34:44.550Z,0
2023-03-07T20:38:09.848Z,0
2023-03-07T20:41:35.180Z,0
2023-03-07T20:45:00.516Z,0
2023-03-07T20:48:25.873Z,0
2023-03-07T20:51:51.137Z,0
2023-03-07T20:55:16.457Z,0
2023-03-07T20:58:41.751Z,0
2023-03-07T21:02:07.008Z,0
2023-03-07T21:05:32.210Z,0
2023-03-07T21:08:57.384Z,0
2023-03-07T21:12:22.588Z,0
2023-03-07T21:15:47.778Z,0
2023-03-07T21:19:13.000Z,0
2023-03-07T21:22:38.217Z,0
2023-03-07T21:26:03.396Z,0
2023-03-07T21:29:28.616Z,0
2023-03-07T21:32:53.825Z,0
2023-03-07T21:36:19.031Z,0
2023-03-07T21:39:44.331Z,0
2023-03-07T21:43:09.463Z,0
2023-03-07T21:46:34.671Z,0
2023-03-07T21:49:59.870Z,0
2023-03-07T21:53:25.059Z,0
2023-03-07T21:56:50.297Z,0
2023-03-07T22:00:15.480Z,0
2023-03-07T22:03:40.686Z,0
2023-03-07T22:07:05.898Z,0
2023-03-07T22:10:31.084Z,0
2023-03-07T22:13:56.325Z,0
2023-03-07T22:17:21.487Z,0
2023-03-07T22:20:46.692Z,0
2023-03-07T22:24:11.868Z,0
2023-03-07T22:27:37.068Z,0
2023-03-07T22:31:02.293Z,0
2023-03-07T22:34:27.444Z,0
2023-03-07T22:37:52.673Z,0
2023-03-07T22:41:17.910Z,0
2023-03-07T22:44:43.096Z,0
2023-03-07T22:48:08.295Z,0
2023-03-07T22:51:33.470Z,0
2023-03-07T22:54:58.666Z,0
2023-03-07T22:58:23.885Z,0
2023-03-07T23:01:49.092Z,0
2023-03-07T23:05:14.327Z,0
2023-03-07T23:08:39.497Z,0
2023-03-07T23:12:04.723Z,0
2023-03-07T23:15:29.998Z,0
2023-03-07T23:18:55.138Z,0
2023-03-07T23:22:20.361Z,0
2023-03-07T23:25:45.548Z,0
2023-03-07T23:29:10.750Z,0
2023-03-07T23:32:35.983Z,0
2023-03-07T23:36:01.182Z,0
2023-03-07T23:39:26.370Z,0
2023-03-07T23:42:51.543Z,0
2023-03-07T23:46:16.766Z,0
2023-03-07T23:49:41.937Z,0
2023-03-07T23:53:07.140Z,0
2023-03-07T23:56:32.353Z,0
2023-03-07T23:59:57.528Z,0
